Time;durP1;ratioP1;P1;durP2;ratioP2;P2;SDS_P1;SDS_P2;PMS_P1;PMS_P2;Temp;Humidity;BMP_temperature;BMP_pressure;BME280_temperature;BME280_humidity;BME280_pressure;Samples;Min_cycle;Max_cycle;Signal;HPM_P1;HPM_P2
2022/06/04 00:00:33;;;;;;;7.72;5.45;;;;;;;9.83;100.00;102262.28;5009154;28;20039;-73
2022/06/04 00:02:59;;;;;;;8.23;4.90;;;;;;;9.82;100.00;102257.00;5010443;28;20114;-73
2022/06/04 00:05:28;;;;;;;8.32;5.15;;;;;;;9.80;100.00;102261.47;5008993;28;20165;-72
2022/06/04 00:07:55;;;;;;;9.32;5.20;;;;;;;9.76;100.00;102255.38;5023678;28;20029;-72
2022/06/04 00:15:59;;;;;;;8.95;5.40;;;;;;;9.72;100.00;102246.63;5007510;28;20726;-72
2022/06/04 00:18:25;;;;;;;7.43;5.05;;;;;;;9.72;100.00;102251.03;5021831;28;20108;-72
2022/06/04 00:20:52;;;;;;;7.93;5.18;;;;;;;9.70;100.00;102242.25;5026870;28;20064;-72
2022/06/04 00:23:18;;;;;;;10.10;5.35;;;;;;;9.64;100.00;102246.75;5014236;28;20616;-72
2022/06/04 00:25:47;;;;;;;8.48;5.10;;;;;;;9.62;100.00;102235.34;5010224;28;21525;-72
2022/06/04 00:28:14;;;;;;;9.57;5.43;;;;;;;9.62;100.00;102232.72;5012266;28;20037;-73
2022/06/04 00:30:40;;;;;;;10.38;5.95;;;;;;;9.66;100.00;102228.22;5027914;28;20033;-72
2022/06/04 00:33:06;;;;;;;9.65;6.05;;;;;;;9.69;100.00;102230.81;5026633;28;20071;-72
2022/06/04 00:35:33;;;;;;;10.38;5.63;;;;;;;9.70;100.00;102229.88;5006888;28;20037;-72
2022/06/04 00:37:59;;;;;;;8.50;6.07;;;;;;;9.72;100.00;102229.88;5008858;28;20037;-72
2022/06/04 00:40:43;;;;;;;11.85;6.07;;;;;;;9.73;100.00;102245.72;5011247;28;20512;-72
2022/06/04 00:43:08;;;;;;;12.00;5.47;;;;;;;9.74;100.00;102243.94;5012683;28;20064;-72
2022/06/04 00:45:34;;;;;;;9.32;5.57;;;;;;;9.76;100.00;102236.84;5009147;28;20172;-72
2022/06/04 00:48:01;;;;;;;12.32;5.22;;;;;;;9.78;100.00;102245.63;5008916;28;20064;-72
2022/06/04 00:50:29;;;;;;;8.63;5.22;;;;;;;9.80;100.00;102235.88;5025671;28;20020;-72
2022/06/04 00:52:55;;;;;;;10.18;5.20;;;;;;;9.82;100.00;102238.50;5010140;28;20039;-73
2022/06/04 00:55:21;;;;;;;9.60;5.63;;;;;;;9.86;100.00;102241.03;5011925;28;20418;-72
2022/06/04 00:58:25;;;;;;;10.38;5.55;;;;;;;9.88;100.00;102223.38;5010090;28;20041;-72
2022/06/04 01:00:57;;;;;;;11.43;6.05;;;;;;;9.94;100.00;102222.38;4972226;28;20131;-72
2022/06/04 01:03:40;;;;;;;10.68;5.68;;;;;;;9.97;100.00;102217.00;4965121;28;20034;-72
2022/06/04 01:06:11;;;;;;;7.72;5.40;;;;;;;10.02;100.00;102224.88;5011468;28;20056;-72
2022/06/04 01:08:43;;;;;;;9.27;5.70;;;;;;;10.05;100.00;102222.16;5008498;28;20087;-72
2022/06/04 01:11:22;;;;;;;7.72;5.40;;;;;;;10.07;100.00;102217.69;5027315;28;20035;-72
2022/06/04 01:13:51;;;;;;;7.80;4.95;;;;;;;10.11;100.00;102219.38;5012137;28;20061;-72
2022/06/04 01:16:23;;;;;;;9.60;5.07;;;;;;;10.13;100.00;102220.22;5024334;28;21391;-72
2022/06/04 01:18:48;;;;;;;8.13;5.10;;;;;;;10.15;100.00;102225.47;5010595;28;20595;-72
2022/06/04 01:21:23;;;;;;;11.38;5.47;;;;;;;10.15;100.00;102221.03;5019847;28;20037;-72
2022/06/04 01:24:13;;;;;;;10.73;5.20;;;;;;;10.13;100.00;102220.22;5029124;28;20608;-72
2022/06/04 01:27:01;;;;;;;12.90;5.43;;;;;;;10.09;100.00;102223.84;5012379;28;20049;-72
2022/06/04 01:29:35;;;;;;;7.70;5.28;;;;;;;10.04;100.00;102226.56;5025358;28;20337;-72
2022/06/04 01:32:23;;;;;;;8.93;5.32;;;;;;;10.00;100.00;102224.03;5012110;28;20207;-72
2022/06/04 01:35:12;;;;;;;10.52;4.88;;;;;;;9.94;100.00;102227.66;5016694;28;21446;-72
2022/06/04 01:37:57;;;;;;;11.18;5.93;;;;;;;9.90;100.00;102231.28;5012650;28;21381;-72
2022/06/04 01:43:17;;;;;;;8.55;4.50;;;;;;;9.82;100.00;102230.56;5030256;28;20036;-72
2022/06/04 01:45:44;;;;;;;12.73;4.90;;;;;;;9.82;100.00;102227.91;4993145;28;20050;-72
2022/06/04 01:48:11;;;;;;;9.88;5.05;;;;;;;9.79;100.00;102234.13;5032284;28;20060;-72
2022/06/04 01:50:42;;;;;;;8.88;4.75;;;;;;;9.75;100.00;102228.03;5030499;28;20053;-72
2022/06/04 01:53:10;;;;;;;6.88;4.63;;;;;;;9.74;100.00;102228.06;5014584;28;20033;-72
2022/06/04 01:56:00;;;;;;;13.60;5.13;;;;;;;9.73;100.00;102223.69;4994215;28;20157;-72
2022/06/04 01:58:36;;;;;;;8.35;4.68;;;;;;;9.75;100.00;102230.69;5023059;28;20577;-72
2022/06/04 02:01:09;;;;;;;7.60;4.55;;;;;;;9.76;100.00;102218.34;5013440;28;20044;-72
2022/06/04 02:03:42;;;;;;;10.02;4.75;;;;;;;9.78;100.00;102224.47;5015248;28;20049;-72
2022/06/04 02:06:11;;;;;;;;;;;;;;;9.80;100.00;102230.59;5016016;28;20181;-72
2022/06/04 02:08:51;;;;;;;8.65;4.88;;;;;;;9.81;100.00;102231.47;5015116;28;19921;-72
2022/06/04 02:11:20;;;;;;;7.25;4.78;;;;;;;9.81;100.00;102226.19;5014268;28;20091;-72
2022/06/04 02:13:48;;;;;;;6.63;4.30;;;;;;;9.82;100.00;102228.81;5030429;28;20116;-72
2022/06/04 02:16:20;;;;;;;8.60;4.82;;;;;;;9.82;100.00;102234.09;5014068;28;20477;-72
2022/06/04 02:18:46;;;;;;;11.07;4.10;;;;;;;9.83;100.00;102234.94;5014327;28;20037;-74
2022/06/04 02:21:14;;;;;;;5.90;3.90;;;;;;;9.81;100.00;102232.31;5006466;28;20021;-72
2022/06/04 02:23:39;;;;;;;9.88;4.40;;;;;;;9.82;100.00;102235.84;4997459;28;20483;-72
2022/06/04 02:26:05;;;;;;;7.80;4.45;;;;;;;9.80;100.00;102249.09;5023716;28;20098;-72
2022/06/04 02:28:30;;;;;;;8.63;4.40;;;;;;;9.80;100.00;102257.03;5031347;28;20040;-71
2022/06/04 02:31:07;;;;;;;11.85;3.95;;;;;;;9.79;100.00;102250.00;5032083;28;20112;-72
2022/06/04 02:33:48;;;;;;;7.57;4.07;;;;;;;9.76;100.00;102255.38;5016012;28;20036;-72
2022/06/04 02:36:22;;;;;;;8.45;4.18;;;;;;;9.76;100.00;102260.66;5029910;28;20754;-72
2022/06/04 02:38:53;;;;;;;5.93;3.75;;;;;;;9.75;100.00;102259.78;5028552;28;20033;-72
2022/06/04 02:41:23;;;;;;;11.15;4.20;;;;;;;9.74;100.00;102258.03;5031497;28;20039;-72
2022/06/04 02:44:01;;;;;;;7.70;4.25;;;;;;;9.75;100.00;102265.06;5014428;28;20487;-72
2022/06/04 02:47:08;;;;;;;6.30;3.80;;;;;;;9.75;100.00;102264.22;5012403;28;20037;-72
2022/06/04 02:49:42;;;;;;;6.40;3.95;;;;;;;9.73;100.00;102266.00;4969378;28;20081;-72
2022/06/04 02:52:09;;;;;;;6.90;3.50;;;;;;;9.71;100.00;102260.75;4948076;28;21474;-72
2022/06/04 02:54:39;;;;;;;6.03;3.75;;;;;;;9.71;100.00;102267.81;4971900;28;20074;-72
2022/06/04 02:57:05;;;;;;;8.20;4.03;;;;;;;9.70;100.00;102266.06;4950674;28;20739;-72
2022/06/04 02:59:34;;;;;;;9.70;3.80;;;;;;;9.70;100.00;102266.06;4967089;28;20042;-72
2022/06/04 03:02:00;;;;;;;6.32;3.95;;;;;;;9.68;100.00;102268.72;4944945;28;20050;-72
2022/06/04 03:04:26;;;;;;;10.73;4.25;;;;;;;9.69;100.00;102273.13;4966192;28;20456;-72
2022/06/04 03:06:51;;;;;;;7.13;3.63;;;;;;;9.71;100.00;102270.44;4954094;28;20039;-72
2022/06/04 03:09:18;;;;;;;7.82;4.05;;;;;;;9.69;100.00;102262.53;4969315;28;20046;-72
2022/06/04 03:11:48;;;;;;;10.35;3.80;;;;;;;9.65;100.00;102261.72;4946514;28;20046;-72
2022/06/04 03:14:16;;;;;;;7.03;3.75;;;;;;;9.64;100.00;102267.91;4967434;28;21807;-72
2022/06/04 03:16:44;;;;;;;6.07;3.92;;;;;;;9.64;100.00;102269.69;4961980;28;20133;-72
2022/06/04 03:19:11;;;;;;;8.13;3.72;;;;;;;9.62;100.00;102263.56;4953284;28;20128;-72
2022/06/04 03:21:37;;;;;;;5.95;4.00;;;;;;;9.60;100.00;102260.06;5032632;28;20644;-72
2022/06/04 03:24:04;;;;;;;5.22;3.75;;;;;;;9.59;100.00;102245.97;5014857;28;20052;-72
2022/06/04 03:26:30;;;;;;;5.75;3.75;;;;;;;9.61;100.00;102249.47;5031148;28;20036;-72
2022/06/04 03:28:55;;;;;;;5.47;3.90;;;;;;;9.60;100.00;102241.56;5013527;28;20036;-73
2022/06/04 03:31:21;;;;;;;5.65;3.92;;;;;;;9.59;100.00;102248.63;5010721;28;21424;-71
2022/06/04 03:33:47;;;;;;;11.13;4.30;;;;;;;9.58;100.00;102241.59;4997693;28;20037;-72
2022/06/04 03:36:12;;;;;;;7.68;3.45;;;;;;;9.60;100.00;102239.78;5013144;28;20037;-72
2022/06/04 03:38:38;;;;;;;6.95;3.95;;;;;;;9.61;100.00;102236.25;5028424;28;20439;-72
2022/06/04 03:41:03;;;;;;;7.30;3.80;;;;;;;9.59;100.00;102238.03;5031411;28;20395;-72
2022/06/04 03:43:29;;;;;;;6.78;3.60;;;;;;;9.59;100.00;102231.91;5013134;28;20037;-72
2022/06/04 03:45:55;;;;;;;6.10;3.80;;;;;;;9.61;100.00;102236.25;5009440;28;20043;-72
2022/06/04 03:48:20;;;;;;;7.15;3.78;;;;;;;9.63;100.00;102231.81;5014672;28;20049;-71
2022/06/04 03:50:46;;;;;;;8.00;3.35;;;;;;;9.62;100.00;102238.00;5030603;28;20025;-72
2022/06/04 03:53:11;;;;;;;4.68;3.33;;;;;;;9.61;100.00;102236.25;5030229;28;20029;-72
2022/06/04 03:55:37;;;;;;;6.45;3.80;;;;;;;9.63;100.00;102237.09;5010788;28;20040;-72
2022/06/04 03:58:03;;;;;;;5.88;3.78;;;;;;;9.65;100.00;102237.91;4998759;28;20028;-72
2022/06/04 04:00:34;;;;;;;5.22;3.35;;;;;;;9.65;100.00;102237.91;5029157;28;20085;-72
2022/06/04 04:03:03;;;;;;;9.73;4.25;;;;;;;9.67;100.00;102232.63;5013093;28;20033;-72
2022/06/04 04:05:35;;;;;;;7.55;3.28;;;;;;;9.67;100.00;102226.44;5010479;28;20533;-72
2022/06/04 04:08:05;;;;;;;7.05;3.75;;;;;;;9.70;100.00;102235.19;5012378;28;20120;-72
2022/06/04 04:10:31;;;;;;;5.80;3.85;;;;;;;9.71;100.00;102230.78;5030082;28;20087;-72
2022/06/04 04:12:57;;;;;;;8.10;4.05;;;;;;;9.72;100.00;102235.16;4997248;28;20439;-72
2022/06/04 04:15:24;;;;;;;6.78;3.53;;;;;;;9.75;100.00;102243.06;5004757;28;20486;-72
2022/06/04 04:17:50;;;;;;;6.53;3.75;;;;;;;9.77;100.00;102249.19;5013961;28;20385;-72
2022/06/04 04:20:22;;;;;;;5.10;3.67;;;;;;;9.82;100.00;102257.91;5006567;28;20029;-72
2022/06/04 04:22:48;;;;;;;8.20;3.58;;;;;;;9.84;100.00;102263.13;5029044;28;20056;-73
2022/06/04 04:25:16;;;;;;;6.68;3.45;;;;;;;9.85;100.00;102268.41;5028588;28;20397;-72
2022/06/04 04:27:44;;;;;;;9.23;3.33;;;;;;;9.89;100.00;102259.53;4993379;28;20075;-72
2022/06/04 04:30:12;;;;;;;8.45;3.60;;;;;;;9.93;100.00;102268.25;5029569;28;20043;-72
2022/06/04 04:32:38;;;;;;;8.60;3.67;;;;;;;9.96;100.00;102259.41;5012232;28;20025;-72
2022/06/04 04:35:07;;;;;;;4.00;3.28;;;;;;;10.01;100.00;102261.03;5026537;28;20037;-72
2022/06/04 04:37:32;;;;;;;5.05;3.03;;;;;;;10.05;100.00;102267.13;5013362;28;20070;-72
2022/06/04 04:39:58;;;;;;;5.47;3.40;;;;;;;10.10;100.00;102270.56;5030988;28;20040;-72
2022/06/04 04:42:23;;;;;;;4.07;3.00;;;;;;;10.12;100.00;102267.88;5029729;28;20036;-72
2022/06/04 04:44:49;;;;;;;4.70;3.22;;;;;;;10.15;100.00;102263.38;5029262;28;20029;-72
2022/06/04 04:47:15;;;;;;;5.32;3.55;;;;;;;10.21;100.00;102259.75;5027624;28;20135;-72
2022/06/04 04:49:40;;;;;;;4.20;2.70;;;;;;;10.25;100.00;102269.34;4995941;28;20032;-72
2022/06/04 04:52:06;;;;;;;4.90;2.92;;;;;;;10.30;100.00;102266.63;5010235;28;20029;-72
2022/06/04 04:54:32;;;;;;;4.25;3.05;;;;;;;10.35;100.00;102277.97;5013173;28;20037;-72
2022/06/04 04:56:58;;;;;;;7.93;3.08;;;;;;;10.42;100.00;102276.97;4994034;28;20396;-72
2022/06/04 04:59:23;;;;;;;8.30;3.20;;;;;;;10.50;100.00;102275.94;5010547;28;20048;-72
2022/06/04 05:01:49;;;;;;;3.78;2.97;;;;;;;10.57;100.00;102275.75;5029304;28;20408;-72
2022/06/04 05:04:15;;;;;;;6.95;3.13;;;;;;;10.65;100.00;102278.25;5029960;28;20056;-72
2022/06/04 05:06:40;;;;;;;4.15;2.70;;;;;;;10.77;100.00;102269.13;5011786;28;20036;-73
2022/06/04 05:09:06;;;;;;;4.13;2.60;;;;;;;10.92;100.00;102273.22;5012668;28;20476;-72
2022/06/04 05:11:32;;;;;;;3.92;2.80;;;;;;;11.12;100.00;102280.66;5031451;28;20041;-72
2022/06/04 05:13:59;;;;;;;5.18;2.80;;;;;;;11.32;100.00;102270.47;5033259;28;20029;-73
2022/06/04 05:16:31;;;;;;;6.57;2.50;;;;;;;11.46;100.00;102270.97;5032468;28;20116;-72
2022/06/04 05:18:57;;;;;;;4.75;3.03;;;;;;;11.61;100.00;102285.59;5015687;28;20151;-72
2022/06/04 05:21:25;;;;;;;6.28;2.42;;;;;;;11.72;100.00;102287.09;5023463;28;20040;-73
2022/06/04 05:23:53;;;;;;;5.75;2.72;;;;;;;11.79;100.00;102286.03;5010453;28;20587;-73
2022/06/04 05:26:20;;;;;;;6.00;2.80;;;;;;;11.81;100.00;102287.72;5013381;28;20045;-73
2022/06/04 05:28:45;;;;;;;2.67;2.40;;;;;;;11.92;100.00;102290.06;4997239;28;20040;-72
2022/06/04 05:31:12;;;;;;;3.90;2.63;;;;;;;12.07;100.00;102277.31;5029191;28;20030;-73
2022/06/04 05:33:37;;;;;;;2.55;2.20;;;;;;;12.25;100.00;102280.34;4994023;28;20075;-72
2022/06/04 05:36:03;;;;;;;4.45;2.10;;;;;;;12.37;100.00;102277.34;5013880;28;20116;-72
2022/06/04 05:38:34;;;;;;;3.63;2.30;;;;;;;12.50;100.00;102261.88;4987457;28;20087;-73
2022/06/04 05:41:01;;;;;;;2.97;2.50;;;;;;;12.57;99.68;102275.81;5018634;28;20508;-72
2022/06/04 05:43:28;;;;;;;3.92;2.50;;;;;;;12.59;98.04;102280.19;5011178;28;20060;-72
2022/06/04 05:45:58;;;;;;;2.97;2.35;;;;;;;12.64;98.60;102280.03;5012373;28;20041;-73
2022/06/04 05:48:23;;;;;;;3.47;2.33;;;;;;;12.73;99.21;102286.84;5003074;28;20041;-73
2022/06/04 05:50:50;;;;;;;3.22;2.30;;;;;;;12.82;98.40;102281.25;4996207;28;20033;-71
2022/06/04 05:53:16;;;;;;;5.53;2.33;;;;;;;12.87;98.03;102287.28;5028655;28;20037;-71
2022/06/04 05:55:41;;;;;;;2.95;2.05;;;;;;;12.93;96.33;102288.00;5012205;28;20052;-71
2022/06/04 05:58:06;;;;;;;2.53;2.13;;;;;;;13.02;97.08;102296.53;5010073;28;20096;-71
2022/06/04 06:00:32;;;;;;;3.53;2.10;;;;;;;13.21;97.43;102300.38;5030350;28;20041;-71
2022/06/04 06:02:57;;;;;;;3.63;2.15;;;;;;;13.33;96.25;102307.09;5014198;28;20038;-71
2022/06/04 06:05:23;;;;;;;2.15;1.95;;;;;;;13.47;95.64;102307.53;5013817;28;20044;-71
2022/06/04 06:07:48;;;;;;;3.63;2.28;;;;;;;13.61;96.02;102301.72;5015415;28;20036;-71
2022/06/04 06:10:14;;;;;;;4.68;2.40;;;;;;;13.73;94.42;102297.75;4996684;28;20037;-72
2022/06/04 06:12:39;;;;;;;2.70;2.03;;;;;;;13.80;94.01;102301.06;5015512;28;20041;-72
2022/06/04 06:15:06;;;;;;;2.67;1.98;;;;;;;13.83;91.48;102300.94;5013802;28;20408;-72
2022/06/04 06:17:32;;;;;;;3.33;2.10;;;;;;;13.89;93.30;102306.03;5021559;28;20033;-72
2022/06/04 06:19:57;;;;;;;3.38;2.28;;;;;;;13.97;92.80;102304.00;5004325;28;20036;-72
2022/06/04 06:22:22;;;;;;;3.35;2.30;;;;;;;14.07;92.87;102296.53;5010278;28;20037;-72
2022/06/04 06:24:48;;;;;;;3.78;2.28;;;;;;;14.19;91.60;102297.88;5023585;28;20079;-72
2022/06/04 06:27:13;;;;;;;3.13;2.20;;;;;;;14.24;90.62;102290.56;5017141;28;20560;-72
2022/06/04 06:29:39;;;;;;;2.92;2.17;;;;;;;14.39;90.92;102298.91;5007005;28;20119;-72
2022/06/04 06:32:05;;;;;;;2.58;2.17;;;;;;;14.50;90.05;102315.31;5024032;28;20040;-72
2022/06/04 06:34:30;;;;;;;4.68;2.20;;;;;;;14.54;89.67;102310.75;5033997;28;20044;-72
2022/06/04 06:36:56;;;;;;;2.95;2.28;;;;;;;14.59;89.22;102310.59;5013862;28;20072;-71
2022/06/04 06:39:22;;;;;;;4.38;2.00;;;;;;;14.74;88.55;102309.13;5013750;28;20037;-72
2022/06/04 06:41:48;;;;;;;4.15;2.00;;;;;;;14.70;85.43;102319.00;5015353;28;21378;-71
2022/06/04 06:44:13;;;;;;;2.97;2.10;;;;;;;14.60;87.59;102322.97;5033091;28;20044;-71
2022/06/04 06:46:42;;;;;;;4.97;2.38;;;;;;;14.55;87.43;102324.94;4972664;28;20045;-72
2022/06/04 06:49:19;;;;;;;3.22;2.38;;;;;;;14.51;85.98;102330.38;5014446;28;20063;-72
2022/06/04 06:51:54;;;;;;;3.97;2.22;;;;;;;14.60;87.42;102336.31;5027223;28;20054;-71
2022/06/04 06:54:21;;;;;;;3.13;2.40;;;;;;;14.72;86.24;102333.16;5015380;28;20040;-72
2022/06/04 06:56:49;;;;;;;3.42;2.40;;;;;;;14.79;84.23;102347.13;4988122;28;20033;-71
2022/06/04 06:59:15;;;;;;;3.08;2.10;;;;;;;14.88;85.92;102340.59;4995851;28;20626;-71
2022/06/04 07:01:42;;;;;;;3.85;2.10;;;;;;;15.04;85.86;102335.50;5027570;28;20045;-71
2022/06/04 07:04:09;;;;;;;2.78;2.22;;;;;;;15.09;85.14;102340.63;5013647;28;20570;-71
2022/06/04 07:06:40;;;;;;;4.07;2.40;;;;;;;15.17;83.52;102342.06;5003644;28;20029;-72
2022/06/04 07:09:10;;;;;;;3.90;2.63;;;;;;;15.37;83.83;102334.16;5021564;28;20458;-71
2022/06/04 07:11:35;;;;;;;4.80;2.22;;;;;;;15.47;83.98;102327.47;5030917;28;20743;-72
2022/06/04 07:14:01;;;;;;;4.68;2.40;;;;;;;15.48;82.51;102323.91;5033267;28;20033;-72
2022/06/04 07:16:26;;;;;;;3.33;2.70;;;;;;;15.55;83.29;102332.50;5013332;28;20033;-71
2022/06/04 07:18:52;;;;;;;5.53;2.58;;;;;;;15.50;81.37;102335.38;4996644;28;20044;-72
2022/06/04 07:21:19;;;;;;;3.70;2.53;;;;;;;15.46;82.31;102328.41;5028878;28;20471;-71
2022/06/04 07:23:45;;;;;;;2.65;2.22;;;;;;;15.50;82.53;102324.69;4995320;28;20040;-71
2022/06/04 07:26:12;;;;;;;2.72;2.08;;;;;;;15.58;81.32;102332.38;5013440;28;20079;-71
2022/06/04 07:28:38;;;;;;;3.08;2.10;;;;;;;15.53;81.12;102332.56;4998062;28;20029;-71
2022/06/04 07:31:08;;;;;;;4.28;2.60;;;;;;;15.57;81.44;102339.50;5029900;28;20514;-71
2022/06/04 07:33:34;;;;;;;3.58;2.42;;;;;;;15.77;82.32;102329.78;5013942;28;20055;-71
2022/06/04 07:36:00;;;;;;;3.67;2.38;;;;;;;15.97;81.59;102328.91;4996133;28;20040;-72
2022/06/04 07:38:25;;;;;;;5.60;2.20;;;;;;;16.06;81.39;102332.13;5012065;28;20028;-72
2022/06/04 07:40:51;;;;;;;3.08;2.40;;;;;;;16.27;80.95;102335.59;5003532;28;20411;-71
2022/06/04 07:43:17;;;;;;;2.97;2.30;;;;;;;16.35;79.19;102338.78;5010835;28;20025;-71
2022/06/04 07:45:42;;;;;;;3.28;2.00;;;;;;;16.31;74.29;102347.00;4996919;28;20067;-71
2022/06/04 07:48:09;;;;;;;3.65;2.25;;;;;;;16.14;74.70;102352.19;5020803;28;20032;-72
2022/06/04 07:50:35;;;;;;;3.97;2.38;;;;;;;16.04;75.95;102353.56;5012905;28;20037;-72
2022/06/04 07:53:01;;;;;;;2.90;2.20;;;;;;;15.97;75.74;102349.44;5029537;28;20491;-72
2022/06/04 07:55:27;;;;;;;2.60;2.10;;;;;;;16.01;75.48;102348.34;5011385;28;20113;-71
2022/06/04 07:57:53;;;;;;;4.78;2.25;;;;;;;16.08;77.13;102344.44;5020527;28;20056;-71
2022/06/04 08:00:25;;;;;;;3.28;2.20;;;;;;;16.12;76.14;102346.06;5029265;28;20507;-72
2022/06/04 08:02:51;;;;;;;4.85;2.65;;;;;;;16.18;75.54;102344.06;5030622;28;20166;-69
2022/06/04 08:05:17;;;;;;;4.18;2.50;;;;;;;16.30;75.81;102327.47;5031464;28;20094;-70
2022/06/04 08:07:44;;;;;;;2.95;2.40;;;;;;;16.33;75.45;102332.66;5007726;28;20037;-71
2022/06/04 08:10:11;;;;;;;3.47;2.47;;;;;;;16.26;75.26;102334.75;5013944;28;20056;-70
2022/06/04 08:12:54;;;;;;;4.40;2.58;;;;;;;16.26;75.70;102333.88;5027600;28;20103;-70
2022/06/04 08:15:21;;;;;;;4.28;2.50;;;;;;;16.48;76.26;102332.88;5031220;28;20037;-72
2022/06/04 08:17:47;;;;;;;5.30;2.35;;;;;;;16.53;76.45;102337.09;5030025;28;20464;-71
2022/06/04 08:20:14;;;;;;;5.45;2.80;;;;;;;16.47;75.93;102321.31;5031346;28;20033;-71
2022/06/04 08:22:40;;;;;;;3.30;2.28;;;;;;;16.31;73.11;102318.50;5011456;28;20080;-70
2022/06/04 08:25:05;;;;;;;2.85;2.10;;;;;;;16.05;74.79;102325.91;5027890;28;20068;-71
2022/06/04 08:27:31;;;;;;;2.83;2.17;;;;;;;15.92;75.79;102328.28;5008607;28;20033;-71
2022/06/04 08:29:57;;;;;;;5.65;2.33;;;;;;;15.82;75.51;102319.75;5022507;28;20033;-71
2022/06/04 08:32:22;;;;;;;2.92;2.45;;;;;;;15.84;76.50;102320.56;5015608;28;20114;-70
2022/06/04 08:34:48;;;;;;;4.32;2.30;;;;;;;15.84;76.14;102317.88;5003009;28;20064;-72
2022/06/04 08:37:13;;;;;;;4.53;2.60;;;;;;;15.94;77.28;102317.50;5029712;28;20033;-71
2022/06/04 08:39:38;;;;;;;3.65;2.42;;;;;;;15.97;75.74;102328.06;5031248;28;20476;-71
2022/06/04 08:42:07;;;;;;;3.15;2.20;;;;;;;16.01;74.10;102321.63;5031569;28;20025;-71
2022/06/04 08:44:36;;;;;;;6.10;2.38;;;;;;;15.91;75.91;102312.28;5026162;28;20070;-71
2022/06/04 08:47:15;;;;;;;3.30;2.50;;;;;;;15.83;75.16;102309.94;5012910;28;20072;-72
2022/06/04 08:49:48;;;;;;;5.70;2.55;;;;;;;15.87;77.02;102325.75;5035463;28;20040;-73
2022/06/04 08:52:18;;;;;;;4.68;2.35;;;;;;;15.87;77.07;102317.72;5012920;28;20243;-73
2022/06/04 08:57:57;;;;;;;3.53;2.50;;;;;;;15.98;75.42;102313.75;5034320;28;20029;-73
2022/06/04 09:00:30;;;;;;;2.53;2.13;;;;;;;16.13;77.23;102317.56;5033611;28;20385;-73
2022/06/04 09:03:14;;;;;;;4.05;2.40;;;;;;;16.23;76.63;102315.31;5017050;28;20031;-73
2022/06/04 09:05:46;;;;;;;2.35;2.13;;;;;;;16.22;76.15;102316.22;5036019;28;20043;-72
2022/06/04 09:08:25;;;;;;;2.33;2.07;;;;;;;16.28;77.24;102313.28;5036452;28;20540;-73
2022/06/04 09:10:57;;;;;;;2.30;1.95;;;;;;;16.26;75.34;102315.16;5034532;28;20037;-72
2022/06/04 09:13:36;;;;;;;2.92;1.90;;;;;;;16.23;74.33;102316.19;5018772;28;20230;-72
2022/06/04 09:16:28;;;;;;;4.53;1.90;;;;;;;16.24;73.26;102314.38;5016309;28;23111;-73
2022/06/04 09:19:00;;;;;;;3.03;2.10;;;;;;;16.28;74.47;102310.59;5018520;28;20040;-72
2022/06/04 09:21:35;;;;;;;2.22;1.80;;;;;;;16.37;72.71;102318.22;5035537;28;20837;-72
2022/06/04 09:24:01;;;;;;;2.25;1.80;;;;;;;16.54;73.84;102317.41;5014805;28;20060;-73
2022/06/04 09:26:33;;;;;;;3.42;1.92;;;;;;;16.71;73.95;102321.09;5031156;28;20041;-73
2022/06/04 09:29:10;;;;;;;3.58;2.15;;;;;;;16.82;73.35;102320.56;4990485;28;20040;-72
2022/06/04 09:31:48;;;;;;;3.88;1.90;;;;;;;16.94;72.05;102325.31;4980925;28;20037;-74
2022/06/04 09:34:23;;;;;;;2.47;2.10;;;;;;;16.92;71.19;102324.53;5016508;28;20124;-73
2022/06/04 09:36:49;;;;;;;2.08;1.88;;;;;;;17.04;71.81;102324.88;4988371;28;20533;-73
2022/06/04 09:39:27;;;;;;;3.92;1.95;;;;;;;17.01;70.84;102327.69;4997688;28;20041;-73
2022/06/04 09:41:56;;;;;;;4.38;2.53;;;;;;;16.99;71.13;102333.09;5030540;28;20029;-73
2022/06/04 09:44:22;;;;;;;2.58;1.88;;;;;;;16.92;70.31;102332.56;4997914;28;20230;-73
2022/06/04 09:46:53;;;;;;;2.70;2.10;;;;;;;16.84;71.06;102330.25;5030311;28;20442;-72
2022/06/04 09:49:29;;;;;;;7.90;2.75;;;;;;;16.69;69.75;102331.84;5007988;28;20933;-73
2022/06/04 09:51:55;;;;;;;4.85;2.70;;;;;;;16.62;70.92;102332.22;4997483;28;20037;-73
2022/06/04 09:54:32;;;;;;;7.38;2.25;;;;;;;16.54;70.37;102335.25;5014093;28;20083;-71
2022/06/04 09:57:02;;;;;;;5.13;2.38;;;;;;;16.54;71.05;102343.28;5011274;28;20037;-72
2022/06/04 09:59:33;;;;;;;4.35;2.60;;;;;;;16.54;71.48;102333.47;5015742;28;20045;-73
2022/06/04 10:02:10;;;;;;;5.32;2.30;;;;;;;16.65;72.03;102340.97;5015336;28;20112;-73
2022/06/04 10:04:43;;;;;;;4.85;2.22;;;;;;;16.76;72.11;102347.59;4989312;28;20068;-71
2022/06/04 10:07:12;;;;;;;4.20;2.13;;;;;;;16.89;72.29;102350.56;5013839;28;20033;-71
2022/06/04 10:09:57;;;;;;;3.25;1.90;;;;;;;17.03;71.34;102353.47;5016246;28;20379;-71
2022/06/04 10:15:47;;;;;;;2.90;2.45;;;;;;;16.89;71.38;102362.13;5015415;28;20341;-72
2022/06/04 10:18:24;;;;;;;3.88;1.92;;;;;;;16.86;71.87;102366.75;5029978;28;20053;-73
2022/06/04 10:20:56;;;;;;;2.78;1.95;;;;;;;16.87;72.14;102361.31;5012081;28;20033;-73
2022/06/04 10:23:22;;;;;;;2.55;1.73;;;;;;;16.88;71.32;102376.44;5029625;28;20049;-72
2022/06/04 10:26:07;;;;;;;2.00;1.70;;;;;;;16.87;70.55;102368.47;5029299;28;20041;-72
2022/06/04 10:28:36;;;;;;;4.13;2.03;;;;;;;16.79;71.20;102376.88;5007193;28;20537;-72
2022/06/04 10:31:10;;;;;;;2.95;2.17;;;;;;;16.70;71.77;102360.34;5004876;28;20025;-72
2022/06/04 10:33:47;;;;;;;2.20;1.90;;;;;;;16.80;72.19;102365.25;5013356;28;20044;-72
2022/06/04 10:36:26;;;;;;;3.28;1.90;;;;;;;16.82;71.87;102360.69;5030050;28;20040;-72
2022/06/04 10:39:01;;;;;;;3.25;2.00;;;;;;;16.84;71.61;102366.84;5030067;28;20034;-72
2022/06/04 10:41:48;;;;;;;2.83;1.67;;;;;;;16.86;71.37;102356.03;5020851;28;20151;-72
2022/06/04 10:45:05;;;;;;;3.63;2.05;;;;;;;16.88;70.97;102355.03;5014495;28;20021;-73
2022/06/04 10:47:35;;;;;;;2.55;2.08;;;;;;;16.91;72.55;102365.59;5000548;28;20087;-72
2022/06/04 10:50:30;;;;;;;4.25;2.20;;;;;;;16.98;71.72;102366.16;5000255;28;20044;-72
2022/06/04 10:53:02;;;;;;;2.83;2.03;;;;;;;16.89;71.21;102370.13;4995315;28;20061;-73
2022/06/04 10:55:45;;;;;;;3.47;2.20;;;;;;;16.72;71.55;102362.91;5013837;28;21437;-73
2022/06/04 10:58:29;;;;;;;4.25;2.30;;;;;;;16.78;72.79;102362.63;5014345;28;20029;-73
2022/06/04 11:01:35;;;;;;;2.65;2.00;;;;;;;16.84;71.78;102365.00;5013993;28;20054;-73
2022/06/04 11:04:13;;;;;;;2.13;1.92;;;;;;;16.93;72.77;102360.16;5013158;28;20045;-74
2022/06/04 11:06:42;;;;;;;2.95;2.03;;;;;;;16.89;72.45;102358.59;5014631;28;20017;-73
2022/06/04 11:09:14;;;;;;;2.90;2.20;;;;;;;16.83;72.77;102367.75;5011787;28;20037;-74
2022/06/04 11:11:46;;;;;;;3.80;2.30;;;;;;;16.79;72.58;102369.72;5027900;28;20068;-72
2022/06/04 11:14:21;;;;;;;2.90;2.03;;;;;;;16.82;72.63;102363.34;5028642;28;20072;-73
2022/06/04 11:17:00;;;;;;;2.72;2.30;;;;;;;16.89;73.78;102351.41;5013982;28;20168;-73
2022/06/04 11:19:35;;;;;;;4.10;2.53;;;;;;;16.89;72.44;102355.91;4994621;28;20037;-73
2022/06/04 11:22:19;;;;;;;3.85;2.53;;;;;;;16.66;71.68;102357.84;5028947;28;20038;-74
2022/06/04 11:24:54;;;;;;;3.22;1.77;;;;;;;16.56;73.32;102365.44;5005451;28;20314;-74
2022/06/04 11:27:25;;;;;;;2.42;2.22;;;;;;;16.58;73.31;102360.91;5029548;28;20194;-74
2022/06/04 11:29:52;;;;;;;2.13;1.88;;;;;;;16.62;72.87;102361.63;5011314;28;20387;-74
2022/06/04 11:32:52;;;;;;;3.20;2.28;;;;;;;16.57;73.34;102359.19;4995845;28;20041;-74
2022/06/04 11:35:27;;;;;;;4.32;2.28;;;;;;;16.59;73.31;102365.31;4996327;28;20491;-73
2022/06/04 11:37:53;;;;;;;3.00;2.08;;;;;;;16.51;73.45;102360.31;5012395;28;20532;-73
2022/06/04 11:40:44;;;;;;;3.95;2.67;;;;;;;16.46;73.70;102364.16;4978689;28;20033;-72
2022/06/04 11:43:18;;;;;;;9.30;2.80;;;;;;;16.51;74.00;102364.81;5011360;28;20087;-72
2022/06/04 11:46:00;;;;;;;3.03;2.35;;;;;;;16.45;73.56;102360.59;5012745;28;20030;-73
2022/06/04 11:49:01;;;;;;;5.25;2.75;;;;;;;16.46;74.72;102361.47;4996076;28;20029;-74
2022/06/04 11:51:33;;;;;;;5.15;2.85;;;;;;;16.47;73.92;102363.22;5013779;28;20049;-73
2022/06/04 11:53:59;;;;;;;;;;;;;;;16.50;73.25;102376.44;5013464;28;20627;-73